Terminal Aerodrome Forecast
Issued by NWS

Home | Current Version | Previous Version | Text Only | Print | Product List | Glossary On
Versions: 1 2 3 4 5 6 7 8 9 10 11 12 13 14 15 16 17 18 19 20 21
000
FTUS43 KFGF 172300
TAFBJI
TAF
KBJI 172320Z 1800/1824 33011KT P6SM SCT020 OVC025
     FM180900 34004KT P6SM OVC020
     FM181800 18005KT P6SM SCT020 BKN250=

USA.gov is the U.S. government's official web portal to all federal, state and local government web resources and services.